METAR Data
IDs: Format: Raw Decoded Include TAF

Data at: 1343 UTC 07 Jul 2020

KSRB 071335Z AUTO 00000KT 10SM CLR 26/21 A3005 RMK A01
KSRB 071315Z AUTO 21005KT 10SM CLR 26/21 A3004 RMK A01
KSRB 071255Z AUTO 00000KT 10SM CLR 25/21 A3003 RMK A01
KSRB 071235Z AUTO 00000KT 10SM CLR 24/21 A3003 RMK A01
KSRB 071215Z AUTO 00000KT 10SM CLR 23/21 A3003 RMK A01
KSRB 071155Z AUTO 00000KT 10SM FEW080 22/21 A3002 RMK A01
KSRB 071135Z AUTO 00000KT 10SM BKN080 21/20 A3002 RMK A01
KSRB 071115Z AUTO 00000KT 10SM FEW080 20/20 A3002 RMK A01
KSRB 071055Z AUTO 00000KT 10SM CLR 20/19 A3002 RMK A01
KSRB 071035Z AUTO 00000KT 10SM CLR 20/19 A3001 RMK A01
KSRB 071015Z AUTO 00000KT 10SM CLR 21/20 A3001 RMK A01
KSRB 070955Z AUTO 13004KT 10SM CLR 22/20 A3001 RMK A01
KSRB 070935Z AUTO 16004KT 10SM CLR 22/20 A3001 RMK A01
KSRB 070915Z AUTO 14005KT 10SM CLR 21/20 A3001 RMK A01
KSRB 070855Z AUTO 00000KT 10SM FEW075 FEW085 21/20 A3001 RMK A01
KSRB 070835Z AUTO 00000KT 10SM SCT038 SCT049 BKN080 21/20 A3001 RMK A01
KSRB 070815Z AUTO 22003KT 10SM SCT039 BKN065 OVC075 21/20 A3000 RMK A01
KSRB 070755Z AUTO 00000KT 10SM BKN065 BKN090 OVC110 22/20 A3001 RMK A01
KSRB 070735Z AUTO 15004KT 10SM FEW065 BKN090 BKN110 22/20 A3000 RMK A01
KSRB 070715Z AUTO 00000KT 10SM FEW055 FEW075 BKN100 21/20 A3000 RMK A01
KSRB 070655Z AUTO 00000KT 10SM CLR 21/20 A3000 RMK A01
KSRB 070635Z AUTO 00000KT 10SM CLR 21/20 A3000 RMK A01
KSRB 070615Z AUTO 20003KT 10SM CLR 21/20 A3001 RMK A01
KSRB 070555Z AUTO 00000KT 10SM CLR 23/19 A3001 RMK A01
KSRB 070535Z AUTO 00000KT 10SM CLR 23/19 A3003 RMK A01
KSRB 070515Z AUTO 15006KT 10SM FEW080 23/19 A3004 RMK A01
KSRB 070455Z AUTO 15005KT 10SM SCT060 23/19 A3005 RMK A01
KSRB 070435Z AUTO 15008KT 10SM BKN060 23/22 A3004 RMK A01
KSRB 070415Z AUTO 00000KT 5SM BR FEW065 FEW095 22/22 A3002 RMK A01
KSRB 070355Z AUTO 00000KT 7SM FEW095 22/21 A3002 RMK A01
KSRB 070335Z AUTO 00000KT 6SM BR CLR 22/21 A3002 RMK A01
KSRB 070315Z AUTO 00000KT 8SM CLR 22/22 A3001 RMK A01
KSRB 070255Z AUTO 00000KT 8SM CLR 23/22 A3001 RMK A01
KSRB 070235Z AUTO 00000KT 10SM CLR 23/22 A3001 RMK A01
KSRB 070215Z AUTO 00000KT 10SM FEW080 23/22 A3001 RMK A01
KSRB 070155Z AUTO 21003KT 10SM CLR 23/22 A3001 RMK A01
KSRB 070135Z AUTO 00000KT 10SM CLR 24/23 A3000 RMK A01
KSRB 070115Z AUTO 00000KT 10SM CLR 25/23 A3000 RMK A01
KSRB 070055Z AUTO 00000KT 10SM CLR 25/23 A2999 RMK A01
KSRB 070035Z AUTO 00000KT 10SM FEW080 26/23 A2999 RMK A01
KSRB 070015Z AUTO 00000KT 10SM SCT080 27/23 A2998 RMK A01
KSRB 062355Z AUTO 00000KT 10SM SCT049 SCT055 BKN075 28/23 A2997 RMK A01
KSRB 062335Z AUTO 03003KT 10SM OVC049 29/22 A2997 RMK A01
KSRB 062315Z AUTO 06004KT 10SM OVC048 29/23 A2997 RMK A01
KSRB 062255Z AUTO 01004KT 10SM OVC047 29/23 A2997 RMK A01
KSRB 062235Z AUTO 00000KT 10SM BKN050 OVC060 30/23 A2997 RMK A01
KSRB 062215Z AUTO 36004KT 10SM BKN047 OVC055 30/22 A2997 RMK A01
KSRB 062155Z AUTO 32006KT 10SM SCT044 BKN050 BKN060 31/22 A2997 RMK A01
KSRB 062135Z AUTO VRB04KT 10SM SCT044 SCT050 BKN060 31/23 A2997 RMK A01
KSRB 062115Z AUTO 00000KT 10SM CLR 31/20 A2998 RMK A01
KSRB 062055Z AUTO 06005KT 10SM CLR 32/21 A2998 RMK A01
KSRB 062035Z AUTO 00000KT 10SM CLR 32/22 A2999 RMK A01
KSRB 062015Z AUTO 35004KT 10SM CLR 31/22 A2999 RMK A01
KSRB 061955Z AUTO 36004KT 10SM CLR 30/22 A3000 RMK A01
KSRB 061935Z AUTO VRB05KT 10SM CLR 31/22 A3001 RMK A01
KSRB 061915Z AUTO 05006KT 10SM CLR 32/20 A3001 RMK A01
KSRB 061855Z AUTO VRB04KT 10SM CLR 31/21 A3001 RMK A01
KSRB 061835Z AUTO VRB04KT 10SM FEW047 31/20 A3001 RMK A01
KSRB 061815Z AUTO VRB03KT 10SM FEW050 FEW055 31/19 A3002 RMK A01
KSRB 061755Z AUTO 00000KT 10SM CLR 31/19 A3003 RMK A01
KSRB 061735Z AUTO VRB03KT 10SM FEW065 31/20 A3004 RMK A01
KSRB 061715Z AUTO 00000KT 10SM SCT065 31/18 A3005 RMK A01
KSRB 061655Z AUTO 12004KT 10SM CLR 30/20 A3005 RMK A01
KSRB 061635Z AUTO 00000KT 10SM FEW070 30/20 A3006 RMK A01
KSRB 061615Z AUTO 19006KT 10SM FEW070 30/20 A3006 RMK A01
KSRB 061555Z AUTO 18006KT 10SM CLR 30/22 A3006 RMK A01
KSRB 061535Z AUTO 19005KT 10SM CLR 29/21 A3007 RMK A01
KSRB 061515Z AUTO 20007KT 10SM CLR 29/21 A3006 RMK A01
KSRB 061455Z AUTO VRB06KT 10SM CLR 29/22 A3006 RMK A01
KSRB 061435Z AUTO 16005KT 10SM CLR 28/22 A3006 RMK A01
KSRB 061415Z AUTO 16005KT 10SM CLR 27/22 A3006 RMK A01
KSRB 061355Z AUTO 15005KT 10SM CLR 27/21 A3006 RMK A01
KSRB 061335Z AUTO 16005KT 10SM FEW070 26/21 A3006 RMK A01
KSRB 061315Z AUTO 18005KT 10SM SCT070 SCT080 26/21 A3006 RMK A01
KSRB 061255Z AUTO 15003KT 10SM FEW065 FEW080 25/21 A3005 RMK A01
KSRB 061235Z AUTO 00000KT 10SM CLR 24/21 A3004 RMK A01
KSRB 061215Z AUTO 00000KT 10SM CLR 23/21 A3004 RMK A01
KSRB 061155Z AUTO 00000KT 9SM CLR 22/21 A3003 RMK A01
KSRB 061135Z AUTO 00000KT 5SM BR CLR 21/20 A3002 RMK A01
KSRB 061115Z AUTO 00000KT 1 1/4SM BR CLR 20/20 A3001 RMK A01 VIS 1/2V4
KSRB 061055Z AUTO 00000KT M1/4SM FG VV000 20/19 A3001 RMK A01
KSRB 061035Z AUTO 00000KT 2SM BR CLR 19/19 A3000 RMK A01 VIS 3/4V5
KSRB 061015Z AUTO 00000KT 1SM BR CLR 20/19 A3000 RMK A01
KSRB 060955Z AUTO 00000KT 2 1/2SM BR CLR 20/20 A3000 RMK A01 VIS 2V5
KSRB 060935Z AUTO 00000KT 4SM BR CLR 20/20 A2999 RMK A01
KSRB 060915Z AUTO 00000KT 1/4SM FG VV002 20/19 A2998 RMK A01
KSRB 060855Z AUTO 00000KT 1/2SM BR VV005 20/19 A2998 RMK A01
KSRB 060835Z AUTO 00000KT 1/2SM FG VV005 19/19 A2997 RMK A01
KSRB 060815Z AUTO 00000KT 1/4SM FG VV002 20/19 A2996 RMK A01
KSRB 060755Z AUTO 00000KT 1 3/4SM BR SCT120 20/19 A2996 RMK A01
KSRB 060735Z AUTO 00000KT 1 1/2SM BR CLR 20/20 A2996 RMK A01
KSRB 060715Z AUTO 00000KT 2SM BR CLR 21/20 A2997 RMK A01
KSRB 060655Z AUTO 00000KT 1 1/2SM BR CLR 21/21 A2997 RMK A01 VIS 1V3
KSRB 060635Z AUTO 00000KT 2 1/2SM BR CLR 21/21 A2998 RMK A01
KSRB 060615Z AUTO 00000KT 5SM BR CLR 22/21 A2998 RMK A01
KSRB 060555Z AUTO 00000KT 5SM BR CLR 22/21 A2998 RMK A01
KSRB 060535Z AUTO 05004KT 6SM BR CLR 22/21 A2998 RMK A01
KSRB 060515Z AUTO 00000KT 5SM BR CLR 22/21 A2998 RMK A01
KSRB 060455Z AUTO 00000KT 7SM CLR 22/22 A2999 RMK A01
KSRB 060435Z AUTO 06005KT 7SM CLR 22/22 A2998 RMK A01
KSRB 060415Z AUTO 00000KT 8SM CLR 22/22 A2999 RMK A01
KSRB 060355Z AUTO 00000KT 6SM BR CLR 22/21 A2999 RMK A01
KSRB 060335Z AUTO 00000KT 5SM BR CLR 22/21 A3000 RMK A01
KSRB 060315Z AUTO 00000KT 8SM CLR 22/22 A3000 RMK A01
KSRB 060255Z AUTO 00000KT 10SM CLR 22/22 A2999 RMK A01
KSRB 060235Z AUTO 00000KT 10SM CLR 22/21 A3000 RMK A01
KSRB 060215Z AUTO 00000KT 9SM CLR 22/22 A2998 RMK A01
KSRB 060155Z AUTO 01003KT 10SM CLR 22/22 A2998 RMK A01